createdAt,value
2023-02-03T00:02:34.537Z,101053.69
2023-02-03T00:05:23.395Z,101050.03
2023-02-03T00:08:12.648Z,101053.69
2023-02-03T00:11:02.692Z,101046.47
2023-02-03T00:13:51.379Z,101043.97
2023-02-03T00:16:39.989Z,101037.47
2023-02-03T00:19:28.661Z,101035.47
2023-02-03T00:22:17.325Z,101035.34
2023-02-03T00:25:06.594Z,101034.16
2023-02-03T00:27:56.903Z,101033.31
2023-02-03T00:30:45.643Z,101039.00
2023-02-03T00:33:34.776Z,101025.84
2023-02-03T00:36:23.482Z,101025.84
2023-02-03T00:39:12.216Z,101020.38
2023-02-03T00:42:00.861Z,101018.44
2023-02-03T00:44:51.061Z,101009.97
2023-02-03T00:47:39.735Z,101004.78
2023-02-03T00:50:28.775Z,100992.16
2023-02-03T00:53:17.639Z,100987.78
2023-02-03T00:56:12.516Z,100986.97
2023-02-03T00:59:01.246Z,100978.16
2023-02-03T01:01:51.745Z,100978.06
2023-02-03T01:04:40.458Z,100971.09
2023-02-03T01:07:29.267Z,100966.75
2023-02-03T01:10:18.434Z,100955.91
2023-02-03T01:13:07.234Z,100956.38
2023-02-03T01:15:55.929Z,100943.47
2023-02-03T01:18:46.429Z,100935.13
2023-02-03T01:21:36.317Z,100927.66
2023-02-03T01:24:25.044Z,100928.13
2023-02-03T01:27:13.760Z,100916.41
2023-02-03T01:30:02.557Z,100904.91
2023-02-03T01:32:51.261Z,100903.38
2023-02-03T01:35:41.406Z,100889.03
2023-02-03T01:38:30.116Z,100893.00
2023-02-03T01:41:20.578Z,100876.66
2023-02-03T01:44:37.910Z,100871.75
2023-02-03T01:47:30.972Z,100882.28
2023-02-03T01:50:22.419Z,100883.31
2023-02-03T01:53:13.408Z,100877.69
2023-02-03T01:56:04.863Z,100877.22
2023-02-03T01:58:53.862Z,100871.53
2023-02-03T02:01:42.555Z,100868.22
2023-02-03T02:04:36.472Z,100842.84
2023-02-03T02:07:26.122Z,100843.91
2023-02-03T02:10:16.351Z,100830.81
2023-02-03T02:13:06.090Z,100816.00
2023-02-03T02:15:59.776Z,100812.66
2023-02-03T02:18:58.200Z,100808.97
2023-02-03T02:21:58.449Z,100807.31
2023-02-03T02:25:04.610Z,100806.19
2023-02-03T02:28:11.990Z,100814.91
2023-02-03T02:31:34.040Z,100798.09
2023-02-03T02:34:35.437Z,100781.28
2023-02-03T02:37:32.220Z,100778.00
2023-02-03T02:40:25.999Z,100763.94
2023-02-03T02:43:18.661Z,100767.44
2023-02-03T02:46:12.003Z,100755.75
2023-02-03T02:49:03.623Z,100750.22
2023-02-03T02:51:54.427Z,100738.28
2023-02-03T02:54:46.435Z,100732.25
2023-02-03T02:57:36.967Z,100730.31
2023-02-03T03:00:26.077Z,100719.63
2023-02-03T03:03:16.062Z,100710.38
2023-02-03T03:06:08.104Z,100700.34
2023-02-03T03:09:00.567Z,100694.00
2023-02-03T03:11:52.092Z,100685.47
2023-02-03T03:14:46.626Z,100680.94
2023-02-03T03:17:44.230Z,100681.69
2023-02-03T03:20:33.941Z,100678.97
2023-02-03T03:23:28.316Z,100668.94
2023-02-03T03:26:21.714Z,100664.25
2023-02-03T03:29:15.137Z,100668.81
2023-02-03T03:32:04.355Z,100671.88
2023-02-03T03:34:53.528Z,100666.28
2023-02-03T03:37:45.466Z,100654.97
2023-02-03T03:40:37.071Z,100647.06
2023-02-03T03:43:30.382Z,100652.94
2023-02-03T03:46:21.894Z,100652.28
2023-02-03T03:49:12.441Z,100652.16
2023-02-03T03:52:03.728Z,100654.84
2023-02-03T03:54:53.283Z,100651.16
2023-02-03T03:57:45.142Z,100647.84
2023-02-03T04:00:37.143Z,100638.47
2023-02-03T04:03:27.334Z,100622.88
2023-02-03T04:06:16.437Z,100615.03
2023-02-03T04:09:05.570Z,100598.25
2023-02-03T04:12:03.488Z,100590.06
2023-02-03T04:14:52.397Z,100569.97
2023-02-03T04:17:42.545Z,100562.22
2023-02-03T04:20:32.454Z,100566.94
2023-02-03T04:23:21.235Z,100564.38
2023-02-03T04:26:10.013Z,100561.63
2023-02-03T04:28:58.722Z,100549.75
2023-02-03T04:31:47.343Z,100564.84
2023-02-03T04:34:37.422Z,100557.75
2023-02-03T04:37:26.755Z,100554.34
2023-02-03T04:40:17.999Z,100556.00
2023-02-03T04:43:09.349Z,100555.63
2023-02-03T04:45:58.705Z,100536.50
2023-02-03T04:48:47.279Z,100553.41
2023-02-03T04:51:37.277Z,100546.53
2023-02-03T04:54:25.858Z,100540.31
2023-02-03T04:57:14.451Z,100545.13
2023-02-03T05:00:03.115Z,100542.78
2023-02-03T05:02:51.798Z,100550.66
2023-02-03T05:05:40.542Z,100530.84
2023-02-03T05:08:31.300Z,100535.16
2023-02-03T05:11:20.096Z,100535.41
2023-02-03T05:14:08.796Z,100519.81
2023-02-03T05:16:57.604Z,100525.22
2023-02-03T05:19:46.399Z,100521.06
2023-02-03T05:22:35.683Z,100519.88
2023-02-03T05:25:26.076Z,100509.69
2023-02-03T05:28:14.853Z,100493.69
2023-02-03T05:31:04.047Z,100492.94
2023-02-03T05:33:52.645Z,100484.06
2023-02-03T05:36:43.936Z,100473.63
2023-02-03T05:39:32.605Z,100467.75
2023-02-03T05:42:21.655Z,100485.13
2023-02-03T05:45:11.562Z,100490.91
2023-02-03T05:48:02.670Z,100491.28
2023-02-03T05:50:51.567Z,100481.19
2023-02-03T05:53:40.224Z,100491.66
2023-02-03T05:56:28.886Z,100505.22
2023-02-03T05:59:19.002Z,100499.28
2023-02-03T06:02:07.652Z,100496.44
2023-02-03T06:04:56.271Z,100484.69
2023-02-03T06:07:44.876Z,100493.75
2023-02-03T06:10:33.451Z,100501.94
2023-02-03T06:13:22.052Z,100501.59
2023-02-03T06:16:12.204Z,100482.41
2023-02-03T06:19:02.037Z,100470.88
2023-02-03T06:21:50.858Z,100487.25
2023-02-03T06:24:39.474Z,100467.56
2023-02-03T06:27:28.440Z,100458.56
2023-02-03T06:30:17.502Z,100456.97
2023-02-03T06:33:07.671Z,100447.44
2023-02-03T06:38:45.843Z,100452.63
2023-02-03T06:41:34.540Z,100450.69
2023-02-03T06:44:23.620Z,100442.81
2023-02-03T06:47:12.230Z,100438.63
2023-02-03T06:50:02.237Z,100438.25
2023-02-03T06:52:51.564Z,100423.41
2023-02-03T06:55:40.227Z,100422.94
2023-02-03T06:58:28.912Z,100414.78
2023-02-03T07:01:17.799Z,100391.00
2023-02-03T07:04:06.953Z,100398.31
2023-02-03T07:06:57.470Z,100391.53
2023-02-03T07:09:46.059Z,100388.06
2023-02-03T07:12:36.515Z,100373.25
2023-02-03T07:15:26.003Z,100368.94
2023-02-03T07:18:25.709Z,100361.59
2023-02-03T07:21:24.158Z,100367.53
2023-02-03T07:24:14.605Z,100359.50
2023-02-03T07:27:04.575Z,100362.59
2023-02-03T07:29:53.480Z,100361.53
2023-02-03T07:32:42.116Z,100362.59
2023-02-03T07:35:30.763Z,100361.31
2023-02-03T07:38:19.430Z,100369.13
2023-02-03T07:41:09.510Z,100365.00
2023-02-03T07:43:58.367Z,100358.41
2023-02-03T07:46:47.060Z,100362.09
2023-02-03T07:49:35.809Z,100352.97
2023-02-03T07:52:24.421Z,100359.88
2023-02-03T07:55:13.105Z,100349.47
2023-02-03T07:58:03.458Z,100342.94
2023-02-03T08:00:52.208Z,100343.69
2023-02-03T08:03:40.985Z,100352.34
2023-02-03T08:06:30.752Z,100338.22
2023-02-03T08:09:19.596Z,100339.63
2023-02-03T08:12:08.535Z,100338.41
2023-02-03T08:14:58.571Z,100327.78
2023-02-03T08:17:47.278Z,100326.53
2023-02-03T08:20:35.961Z,100324.75
2023-02-03T08:23:24.620Z,100318.03
2023-02-03T08:26:13.286Z,100317.97
2023-02-03T08:29:01.955Z,100311.19
2023-02-03T08:31:52.086Z,100307.13
2023-02-03T08:34:40.819Z,100326.66
2023-02-03T08:37:31.773Z,100304.94
2023-02-03T08:40:20.527Z,100303.66
2023-02-03T08:43:09.106Z,100314.59
2023-02-03T08:45:57.820Z,100309.88
2023-02-03T08:48:47.933Z,100298.81
2023-02-03T08:51:36.518Z,100308.25
2023-02-03T08:54:26.183Z,100313.72
2023-02-03T08:57:15.099Z,100310.28
2023-02-03T09:00:04.158Z,100300.88
2023-02-03T09:02:52.818Z,100297.72
2023-02-03T09:05:42.780Z,100285.28
2023-02-03T09:08:31.574Z,100297.41
2023-02-03T09:11:20.341Z,100293.88
2023-02-03T09:14:08.950Z,100272.56
2023-02-03T09:16:57.945Z,100264.75
2023-02-03T09:19:46.608Z,100275.84
2023-02-03T09:22:36.689Z,100261.94
2023-02-03T09:25:25.359Z,100254.53
2023-02-03T09:28:14.096Z,100265.19
2023-02-03T09:31:02.929Z,100252.41
2023-02-03T09:33:51.559Z,100251.09
2023-02-03T09:36:41.936Z,100248.22
2023-02-03T09:39:33.112Z,100229.34
2023-02-03T09:42:31.215Z,100219.44
2023-02-03T09:45:23.091Z,100205.28
2023-02-03T09:48:16.475Z,100187.00
2023-02-03T09:51:05.274Z,100182.50
2023-02-03T09:53:58.467Z,100180.03
2023-02-03T09:56:52.626Z,100176.03
2023-02-03T09:59:41.254Z,100165.75
2023-02-03T10:02:45.055Z,100163.25
2023-02-03T10:05:47.089Z,100164.06
2023-02-03T10:08:48.422Z,100164.06
2023-02-03T10:11:49.618Z,100155.50
2023-02-03T10:14:51.436Z,100141.53
2023-02-03T10:17:42.408Z,100140.72
2023-02-03T10:20:36.952Z,100137.59
2023-02-03T10:23:30.441Z,100123.44
2023-02-03T10:26:21.628Z,100124.25
2023-02-03T10:29:20.637Z,100126.50
2023-02-03T10:32:12.389Z,100112.97
2023-02-03T10:35:03.148Z,100111.53
2023-02-03T10:37:53.173Z,100106.63
2023-02-03T10:40:41.953Z,100092.28
2023-02-03T10:43:51.658Z,100070.34
2023-02-03T10:46:42.065Z,100074.00
2023-02-03T10:49:32.381Z,100071.75
2023-02-03T10:52:29.972Z,100071.75
2023-02-03T10:55:32.645Z,100071.34
2023-02-03T10:58:26.782Z,100063.16
2023-02-03T11:01:17.077Z,100073.38
2023-02-03T11:04:07.237Z,100042.25
2023-02-03T11:06:58.677Z,100041.41
2023-02-03T11:09:47.528Z,100058.63
2023-02-03T11:12:36.595Z,100061.09
2023-02-03T11:15:25.521Z,100050.81
2023-02-03T11:18:38.300Z,100038.13
2023-02-03T11:21:29.757Z,100041.78
2023-02-03T11:24:23.700Z,100041.78
2023-02-03T11:27:15.046Z,100040.97
2023-02-03T11:30:16.663Z,100031.53
2023-02-03T11:33:05.591Z,100029.34
2023-02-03T11:35:57.821Z,100035.00
2023-02-03T11:38:46.564Z,100046.25
2023-02-03T11:41:38.837Z,100038.25
2023-02-03T11:44:31.383Z,100037.88
2023-02-03T11:47:23.655Z,100044.84
2023-02-03T11:50:23.131Z,100018.84
2023-02-03T11:53:32.734Z,100027.47
2023-02-03T11:56:29.152Z,100018.84
2023-02-03T11:59:42.759Z,99994.25
2023-02-03T12:02:53.636Z,99941.38
2023-02-03T12:05:55.730Z,99943.03
2023-02-03T12:08:57.456Z,99911.69
2023-02-03T12:11:59.262Z,99903.69
2023-02-03T12:14:57.454Z,99930.94
2023-02-03T12:17:54.178Z,99931.97
2023-02-03T12:20:56.037Z,99942.63
2023-02-03T12:23:51.619Z,99949.59
2023-02-03T12:26:44.935Z,99956.13
2023-02-03T12:29:38.562Z,99950.19
2023-02-03T12:32:34.147Z,99930.75
2023-02-03T12:35:25.862Z,99936.88
2023-02-03T12:38:18.621Z,99941.38
2023-02-03T12:41:10.624Z,99944.25
2023-02-03T12:44:02.693Z,99929.91
2023-02-03T12:46:54.971Z,99917.59
2023-02-03T12:49:47.905Z,99932.75
2023-02-03T12:52:40.149Z,99929.47
2023-02-03T12:55:32.914Z,99920.88
2023-02-03T12:58:24.922Z,99942.16
2023-02-03T13:01:18.044Z,99932.34
2023-02-03T13:04:10.742Z,99939.72
2023-02-03T13:07:06.254Z,99962.69
2023-02-03T13:10:00.516Z,99986.00
2023-02-03T13:12:52.036Z,100012.66
2023-02-03T13:15:44.876Z,100037.63
2023-02-03T13:18:36.143Z,100017.16
2023-02-03T13:21:24.832Z,100018.38
2023-02-03T13:24:14.894Z,100013.44
2023-02-03T13:27:14.288Z,100024.53
2023-02-03T13:30:13.466Z,100027.38
2023-02-03T13:33:25.747Z,100014.47
2023-02-03T13:36:29.690Z,100031.06
2023-02-03T13:39:48.549Z,100018.78
2023-02-03T13:42:39.435Z,100024.72
2023-02-03T13:45:30.556Z,100015.09
2023-02-03T13:48:22.156Z,100034.56
2023-02-03T13:51:17.384Z,100040.09
2023-02-03T13:54:08.415Z,100058.09
2023-02-03T13:57:02.284Z,100056.06
2023-02-03T13:59:51.088Z,100059.53
2023-02-03T14:02:45.323Z,100053.22
2023-02-03T14:05:42.965Z,100066.31
2023-02-03T14:08:55.362Z,100053.00
2023-02-03T14:11:46.865Z,100068.44
2023-02-03T14:15:05.821Z,100070.09
2023-02-03T14:18:02.217Z,100073.59
2023-02-03T14:20:57.091Z,100084.03
2023-02-03T14:23:59.543Z,100083.88
2023-02-03T14:26:49.542Z,100085.19
2023-02-03T14:29:38.535Z,100092.03
2023-02-03T14:32:51.914Z,100093.31
2023-02-03T14:35:42.388Z,100087.66
2023-02-03T14:38:33.516Z,100102.38
2023-02-03T14:41:26.476Z,100104.81
2023-02-03T14:44:25.037Z,100088.25
2023-02-03T14:47:20.884Z,100091.34
2023-02-03T14:50:23.683Z,100114.06
2023-02-03T14:53:23.851Z,100113.03
2023-02-03T14:56:21.906Z,100122.47
2023-02-03T14:59:12.539Z,100119.34
2023-02-03T15:02:14.963Z,100108.31
2023-02-03T15:05:40.495Z,100124.16
2023-02-03T15:08:44.435Z,100125.41
2023-02-03T15:11:34.574Z,100133.63
2023-02-03T15:14:25.715Z,100127.84
2023-02-03T15:17:20.299Z,100143.84
2023-02-03T15:20:43.370Z,100149.63
2023-02-03T15:23:42.090Z,100138.97
2023-02-03T15:26:32.422Z,100148.00
2023-02-03T15:29:24.761Z,100148.59
2023-02-03T15:32:18.062Z,100165.63
2023-02-03T15:35:08.759Z,100154.53
2023-02-03T15:38:00.799Z,100165.19
2023-02-03T15:40:54.590Z,100165.44
2023-02-03T15:43:45.473Z,100173.47
2023-02-03T15:46:37.643Z,100174.22
2023-02-03T15:49:29.505Z,100174.63
2023-02-03T15:52:19.197Z,100176.63
2023-02-03T15:55:17.909Z,100175.00
2023-02-03T15:58:08.322Z,100186.44
2023-02-03T16:00:58.497Z,100179.06
2023-02-03T16:03:49.326Z,100177.41
2023-02-03T16:06:40.855Z,100193.19
2023-02-03T16:09:32.063Z,100206.94
2023-02-03T16:12:24.812Z,100206.03
2023-02-03T16:15:24.865Z,100208.88
2023-02-03T16:18:18.608Z,100200.09
2023-02-03T16:21:07.478Z,100217.94
2023-02-03T16:23:56.060Z,100213.88
2023-02-03T16:26:44.653Z,100215.94
2023-02-03T16:29:55.209Z,100230.13
2023-02-03T16:33:02.718Z,100222.16
2023-02-03T16:36:08.991Z,100229.19
2023-02-03T16:39:15.627Z,100218.19
2023-02-03T16:42:32.172Z,100242.31
2023-02-03T16:45:38.332Z,100244.72
2023-02-03T16:48:46.266Z,100242.31
2023-02-03T16:51:39.912Z,100230.78
2023-02-03T16:54:29.055Z,100235.31
2023-02-03T16:57:17.728Z,100239.50
2023-02-03T17:00:08.670Z,100248.09
2023-02-03T17:02:58.697Z,100253.88
2023-02-03T17:05:49.999Z,100257.28
2023-02-03T17:08:41.666Z,100261.19
2023-02-03T17:11:30.251Z,100264.81
2023-02-03T17:14:18.901Z,100278.03
2023-02-03T17:17:07.939Z,100277.59
2023-02-03T17:19:57.038Z,100268.19
2023-02-03T17:22:47.030Z,100270.28
2023-02-03T17:25:36.993Z,100276.81
2023-02-03T17:28:25.794Z,100284.41
2023-02-03T17:31:16.367Z,100273.13
2023-02-03T17:34:05.157Z,100270.69
2023-02-03T17:36:56.419Z,100281.34
2023-02-03T17:55:20.246Z,100303.47
2023-02-03T17:58:08.848Z,100309.69
2023-02-03T18:00:57.550Z,100312.88
2023-02-03T18:03:47.057Z,100314.53
2023-02-03T18:06:36.045Z,100313.84
2023-02-03T18:09:24.673Z,100319.50
2023-02-03T18:12:14.660Z,100317.13
2023-02-03T18:15:03.254Z,100327.06
2023-02-03T18:17:51.972Z,100346.38
2023-02-03T18:20:40.652Z,100338.22
2023-02-03T18:23:30.847Z,100347.69
2023-02-03T18:26:20.988Z,100357.63
2023-02-03T18:29:12.840Z,100348.19
2023-02-03T18:32:01.393Z,100362.56
2023-02-03T18:34:50.154Z,100365.03
2023-02-03T18:37:52.789Z,100372.84
2023-02-03T18:40:41.437Z,100363.69
2023-02-03T18:43:30.216Z,100368.72
2023-02-03T18:46:21.586Z,100371.59
2023-02-03T18:49:10.471Z,100367.09
2023-02-03T18:51:59.087Z,100381.88
2023-02-03T18:54:47.721Z,100374.06
2023-02-03T18:57:36.391Z,100367.50
2023-02-03T19:00:26.433Z,100380.44
2023-02-03T19:03:16.392Z,100379.38
2023-02-03T19:06:11.225Z,100395.75
2023-02-03T19:09:00.843Z,100390.88
2023-02-03T19:11:49.667Z,100385.69
2023-02-03T19:14:38.330Z,100385.69
2023-02-03T19:17:26.963Z,100383.03
2023-02-03T19:20:17.609Z,100377.53
2023-02-03T19:23:08.537Z,100372.44
2023-02-03T19:25:57.117Z,100382.69
2023-02-03T19:28:45.798Z,100363.72
2023-02-03T19:31:35.643Z,100379.81
2023-02-03T19:34:24.344Z,100370.63
2023-02-03T19:37:14.545Z,100363.84
2023-02-03T19:40:03.128Z,100370.44
2023-02-03T19:42:51.799Z,100384.84
2023-02-03T19:45:40.504Z,100380.72
2023-02-03T19:48:29.147Z,100377.47
2023-02-03T19:51:17.717Z,100383.22
2023-02-03T19:54:08.070Z,100388.16
2023-02-03T19:56:56.682Z,100398.41
2023-02-03T19:59:45.250Z,100391.81
2023-02-03T20:02:33.823Z,100401.19
2023-02-03T20:05:22.656Z,100399.94
2023-02-03T20:08:14.349Z,100400.00
2023-02-03T20:11:04.453Z,100394.53
2023-02-03T20:13:53.199Z,100392.72
2023-02-03T20:16:42.785Z,100404.66
2023-02-03T20:19:31.417Z,100405.91
2023-02-03T20:22:20.217Z,100407.06
2023-02-03T20:25:09.128Z,100401.81
2023-02-03T20:28:02.510Z,100406.72
2023-02-03T20:30:52.317Z,100409.13
2023-02-03T20:33:41.155Z,100410.41
2023-02-03T20:36:29.692Z,100405.44
2023-02-03T20:39:20.385Z,100409.75
2023-02-03T20:42:16.276Z,100403.34
2023-02-03T20:45:14.292Z,100408.50
2023-02-03T20:48:02.895Z,100404.81
2023-02-03T20:50:51.638Z,100408.09
2023-02-03T20:53:40.495Z,100405.84
2023-02-03T20:56:29.227Z,100401.34
2023-02-03T20:59:19.642Z,100407.91
2023-02-03T21:02:18.215Z,100408.75
2023-02-03T21:05:23.999Z,100423.09
2023-02-03T21:08:14.124Z,100426.03
2023-02-03T21:11:02.666Z,100430.50
2023-02-03T21:13:51.340Z,100426.81
2023-02-03T21:16:39.983Z,100442.44
2023-02-03T21:19:32.305Z,100432.56
2023-02-03T21:22:23.855Z,100433.78
2023-02-03T21:25:27.238Z,100439.13
2023-02-03T21:28:23.207Z,100426.59
2023-02-03T21:31:20.604Z,100437.50
2023-02-03T21:34:21.889Z,100430.50
2023-02-03T21:37:40.103Z,100437.47
2023-02-03T21:40:30.900Z,100443.66
2023-02-03T21:43:19.972Z,100439.94
2023-02-03T21:46:17.449Z,100440.72
2023-02-03T21:49:06.433Z,100447.78
2023-02-03T21:51:55.051Z,100452.28
2023-02-03T21:54:45.042Z,100453.91
2023-02-03T21:57:33.703Z,100460.69
2023-02-03T22:00:42.860Z,100456.13
2023-02-03T22:03:32.907Z,100475.69
2023-02-03T22:06:24.454Z,100484.75
2023-02-03T22:09:13.956Z,100480.44
2023-02-03T22:12:03.976Z,100501.13
2023-02-03T22:14:52.646Z,100504.03
2023-02-03T22:17:41.235Z,100508.75
2023-02-03T22:20:29.964Z,100511.00
2023-02-03T22:23:19.379Z,100520.84
2023-02-03T22:26:08.589Z,100514.28
2023-02-03T22:28:58.706Z,100512.63
2023-02-03T22:31:47.313Z,100514.28
2023-02-03T22:34:36.011Z,100524.97
2023-02-03T22:37:24.607Z,100527.91
2023-02-03T22:40:13.768Z,100520.06
2023-02-03T22:43:03.045Z,100525.59
2023-02-03T22:45:53.255Z,100527.81
2023-02-03T22:48:41.854Z,100536.50
2023-02-03T22:51:30.412Z,100537.50
2023-02-03T22:54:19.011Z,100532.97
2023-02-03T22:57:07.587Z,100536.09
2023-02-03T22:59:56.145Z,100542.25
2023-02-03T23:02:46.170Z,100543.91
2023-02-03T23:05:34.820Z,100536.41
2023-02-03T23:08:23.371Z,100547.84
2023-02-03T23:11:11.965Z,100553.09
2023-02-03T23:14:00.587Z,100556.75
2023-02-03T23:16:49.194Z,100561.00
2023-02-03T23:19:39.351Z,100565.25
2023-02-03T23:22:28.494Z,100559.16
2023-02-03T23:25:17.112Z,100561.00
2023-02-03T23:28:07.793Z,100564.94
2023-02-03T23:30:56.908Z,100569.84
2023-02-03T23:34:05.989Z,100556.88
2023-02-03T23:36:54.930Z,100565.25
2023-02-03T23:39:43.495Z,100566.16
2023-02-03T23:42:32.105Z,100574.25
2023-02-03T23:45:20.952Z,100589.91
2023-02-03T23:48:09.996Z,100613.25
2023-02-03T23:50:58.595Z,100643.88
2023-02-03T23:53:48.710Z,100683.03
2023-02-03T23:56:37.322Z,100681.69
2023-02-03T23:59:26.009Z,100708.72
